METAR Data
IDs: Format: Raw Decoded Include TAF

Data at: 1337 UTC 14 Dec 2019

METAR for:KIIB (Independence Muni, IA, US)
Text:KIIB 141335Z AUTO 32009KT 5SM BR OVC014 M05/M07 A2984 RMK AO2 T10521071
Temperature: -5.2°C ( 23°F)
Dewpoint: -7.1°C ( 19°F) [RH = 86%]
Pressure (altimeter):29.84 inches Hg (1010.6 mb)
Winds:from the NW (320 degrees) at 10 MPH (9 knots; 4.6 m/s)
Visibility: 5 sm ( 8 km)
Ceiling:1400 feet AGL
Clouds: overcast cloud deck at 1400 feet AGL
Weather:BR (mist)
QC Flag:automated observation with no human augmentation